Search for airport 
image banner adimage banner adimage banner ad
image banner ad

EKSY - Skuvoy

Located in Skuvoy, Faroe Islands

ICAO - EKSY, IATA -

Data provided by Airmate  

General information

Coordinates: N61°46'10" W6°48'12"
Elevation is 70 feet MSL.
Magnetic variation is -8.1° East
View others Airports in (unassigned)

Operational data

Special qualification required
Current time UTC:
Current local time:
Weather at : EKVG - Vagar ( 41 km )
METAR: EKVG 242250Z AUTO 14006KT 0700 R12/P1500N R30/P1500U FG OVC002/// 10/10 Q1013
TAF: TAF EKVG 241422Z 2415/2421 16008KT 9999 BKN004 TEMPO 2415/2421 0400 FG VV002
View NOTAMs / SUP AIP / TFR affecting this airport [VIEW]
Communications frequencies: [VIEW]

Runways:

Airport contact information

Address: Skuvoy Faroe Islands

Satellite view of EKSY